Airfield :
LOGIN :

Register | Disclaimer

   EN    FR    IT 

 










Legend :    VFR   Marginal VFR   IFR   Intensive IFR   Very Intensive IFR
Visi :
Ceiling :
>= 8 km
>= 3000ft
5 to 8 km
1000 to 3000 ft
1500m to 5 km
500 to 1000 ft
800 to 1500m
200 to 500 ft
< 800m
< 200 ft
Symbols :   Thunderstorms  Fog  Heavy snow  Heavy precipitations  Wind > 20 kt
SIGMETs :     Misc.  Thunderstorms  Icing  Turbulence  Mountain Waves  Volcanic Ashes







- Airport Elevation : 297 ft
- IATA code : UIP
- Download approach charts


LFRQ - Quimper Pluguffan

CURRENT METAR :
  • 170530Z AUTO 24012KT 1300 R28/1700U -RA BR VV/// 17/17 Q1015 BECMG 2000 -RA BR OVC003

EXPIRED METARs :
  • 170500Z AUTO 24011KT 1300 R28/1600D BR VV/// 18/17 Q1015
  • 170430Z AUTO 24009KT 1700 -RA BR VV/// 18/17 Q1015
  • 170400Z AUTO 25011KT 3900 BR VV/// 18/17 Q1015
  • 170330Z AUTO 25010KT 3300 BR VV/// 18/17 Q1015
  • 170300Z AUTO 24012KT 210V270 2500 -RA BR VV/// 18/18 Q1015

TAF TAF LFRQ
Valid from the 17 at 06:00 until the 17 at 15:00 UTC


170500Z 1706/1715 24009KT 2000 -RA BR OVC003
TEMPO 1712/1715 BKN015
No reported NOTAMs for that airfield.



MET'MAP, your aeronautical weather chart ! - Copyright ORBIFLY December 2007 - Disclaimer

ORBIFLY MET'MAP TEAM :

Programming & Development : Alexandra Zaïnal
Concept & Development : Baudouin d'Aumeries
Co-Development & Prog : Marc-Olivier Méhu
Technical & hardware support : Manuel Goepfert

Contact : metmap@orbifly.com




SOURCES & CREDITS :

   NOAA